Time;durP1;ratioP1;P1;durP2;ratioP2;P2;SDS_P1;SDS_P2;PMS_P1;PMS_P2;Temp;Humidity;BMP_temperature;BMP_pressure;BME280_temperature;BME280_humidity;BME280_pressure;Samples;Min_cycle;Max_cycle;Signal;HPM_P1;HPM_P2
2021/07/18 00:00:29;;;;;;;;;;;;;;;23.03;81.50;98578.48;1865586;75;20156;-64
2021/07/18 00:03:04;;;;;;;;;;;;;;;23.07;81.47;98576.09;1873395;76;20097;-62
2021/07/18 00:05:38;;;;;;;;;;;;;;;23.13;81.55;98578.92;1892808;76;20346;-64
2021/07/18 00:08:12;;;;;;;;;;;;;;;23.19;81.51;98580.79;1873443;76;20102;-64
2021/07/18 00:11:07;;;;;;;;;;;;;;;23.24;81.20;98577.09;1881450;75;20140;-64
2021/07/18 00:13:41;;;;;;;;;;;;;;;23.26;81.05;98566.04;1892811;76;20207;-65
2021/07/18 00:16:17;;;;;;;;;;;;;;;23.28;80.75;98562.84;1873250;76;20188;-64
2021/07/18 00:18:53;;;;;;;;;;;;;;;23.30;80.55;98557.05;1892794;76;20101;-63
2021/07/18 00:21:27;;;;;;;;;;;;;;;23.29;80.42;98563.25;1892797;76;20347;-65
2021/07/18 00:24:03;;;;;;;;;;;;;;;23.26;80.52;98560.77;1873472;76;20208;-63
2021/07/18 00:26:44;;;;;;;;;;;;;;;23.18;80.74;98555.87;1892753;76;20203;-65
2021/07/18 00:29:18;;;;;;;;;;;;;;;23.12;80.92;98556.98;1892816;76;20183;-64
2021/07/18 00:31:53;;;;;;;;;;;;;;;23.08;81.13;98558.07;1873490;76;20208;-62
2021/07/18 00:34:27;;;;;;;;;;;;;;;23.05;81.38;98562.17;1873492;76;20101;-60
2021/07/18 00:37:02;;;;;;;;;;;;;;;23.03;81.56;98556.11;1873397;76;20101;-63
2021/07/18 00:39:37;;;;;;;;;;;;;;;22.98;81.77;98555.47;1873568;76;20093;-63
2021/07/18 00:42:31;;;;;;;;;;;;;;;22.90;82.29;98554.95;1873458;76;20101;-64
2021/07/18 00:45:07;;;;;;;;;;;;;;;22.83;82.60;98553.52;1873458;76;20097;-63
2021/07/18 00:47:42;;;;;;;;;;;;;;;22.78;83.04;98544.98;1892804;76;20208;-64
2021/07/18 00:50:35;;;;;;;;;;;;;;;22.71;83.56;98542.61;1873395;76;20101;-63
2021/07/18 00:53:11;;;;;;;;;;;;;;;22.67;83.88;98537.55;1873468;76;20097;-64
2021/07/18 00:55:46;;;;;;;;;;;;;;;22.61;84.29;98542.63;1873470;76;20344;-62
2021/07/18 00:58:21;;;;;;;;;;;;;;;22.56;84.43;98538.03;1873471;76;20102;-63
2021/07/18 01:01:02;;;;;;;;;;;;;;;22.49;84.98;98532.66;1872636;76;20351;-64
2021/07/18 01:03:36;;;;;;;;;;;;;;;22.45;85.39;98533.73;1873466;76;20102;-64
2021/07/18 01:06:11;;;;;;;;;;;;;;;22.43;85.98;98530.30;1873573;76;20094;-64
2021/07/18 01:09:05;;;;;;;;;;;;;;;22.39;86.64;98536.17;1848478;77;20480;-68
2021/07/18 01:11:39;;;;;;;;;;;;;;;22.37;86.96;98534.06;1892802;76;20212;-63
2021/07/18 01:14:15;;;;;;;;;;;;;;;22.36;87.00;98531.49;1873428;76;20101;-67
2021/07/18 01:16:49;;;;;;;;;;;;;;;22.35;87.23;98529.80;1892820;76;20351;-64
2021/07/18 01:19:24;;;;;;;;;;;;;;;22.36;87.62;98532.34;1892782;76;20354;-65
2021/07/18 01:22:00;;;;;;;;;;;;;;;22.35;87.45;98541.62;1873470;76;20101;-63
2021/07/18 01:24:36;;;;;;;;;;;;;;;22.32;87.73;98539.52;1873339;76;20101;-63
2021/07/18 01:27:12;;;;;;;;;;;;;;;22.26;88.25;98534.55;1873314;76;20098;-62
2021/07/18 01:29:46;;;;;;;;;;;;;;;22.22;88.51;98539.53;1873438;76;20097;-67
2021/07/18 01:32:21;;;;;;;;;;;;;;;22.16;89.16;98532.32;1892755;76;20097;-64
2021/07/18 01:34:56;;;;;;;;;;;;;;;22.12;89.10;98540.81;1873399;76;20097;-62
2021/07/18 01:37:32;;;;;;;;;;;;;;;22.09;89.19;98537.00;1873472;76;20101;-65
2021/07/18 01:40:10;;;;;;;;;;;;;;;22.06;89.32;98534.52;1873494;76;20098;-64
2021/07/18 01:43:05;;;;;;;;;;;;;;;21.99;89.81;98535.69;1873338;76;20097;-63
2021/07/18 01:45:40;;;;;;;;;;;;;;;21.99;90.04;98538.31;1873464;76;20101;-63
2021/07/18 01:48:15;;;;;;;;;;;;;;;21.99;90.22;98537.00;1873486;76;20097;-64
2021/07/18 01:50:49;;;;;;;;;;;;;;;21.99;90.39;98536.53;1873497;76;20204;-63
2021/07/18 01:53:25;;;;;;;;;;;;;;;21.99;90.41;98537.85;1873235;76;20098;-62
2021/07/18 01:56:00;;;;;;;;;;;;;;;21.98;90.52;98540.53;1892813;76;20239;-64
2021/07/18 01:58:40;;;;;;;;;;;;;;;21.97;90.45;98534.89;1892782;76;20097;-66
2021/07/18 02:01:15;;;;;;;;;;;;;;;21.94;90.49;98537.66;1892808;76;20215;-62
2021/07/18 02:04:15;;;;;;;;;;;;;;;21.92;90.81;98537.71;1872597;76;20219;-63
2021/07/18 02:06:56;;;;;;;;;;;;;;;21.93;90.85;98533.30;1869132;76;20473;-65
2021/07/18 02:09:37;;;;;;;;;;;;;;;21.95;90.86;98538.89;1872344;76;20098;-64
2021/07/18 02:12:37;;;;;;;;;;;;;;;21.99;90.81;98535.69;1872653;76;20208;-65
2021/07/18 02:15:32;;;;;;;;;;;;;;;22.04;90.65;98535.03;1873345;76;20188;-63
2021/07/18 02:18:06;;;;;;;;;;;;;;;22.06;90.45;98530.58;1873535;76;20359;-64
2021/07/18 02:20:41;;;;;;;;;;;;;;;22.08;90.21;98531.34;1892808;76;20147;-63
2021/07/18 02:23:17;;;;;;;;;;;;;;;22.13;89.94;98529.83;1873462;76;20097;-62
2021/07/18 02:25:52;;;;;;;;;;;;;;;22.20;89.50;98532.63;1892804;76;20207;-63
2021/07/18 02:28:26;;;;;;;;;;;;;;;22.25;89.12;98526.25;1873459;76;20351;-64
2021/07/18 02:31:09;;;;;;;;;;;;;;;22.30;88.64;98515.06;1872161;76;20165;-65
2021/07/18 02:34:10;;;;;;;;;;;;;;;22.36;88.19;98513.09;1891877;76;20117;-65
2021/07/18 02:36:44;;;;;;;;;;;;;;;22.42;87.79;98505.80;1873581;76;20205;-65
2021/07/18 02:39:25;;;;;;;;;;;;;;;22.47;87.38;98506.91;1872513;76;20098;-62
2021/07/18 02:42:00;;;;;;;;;;;;;;;22.54;87.04;98510.95;1873469;76;20356;-63
2021/07/18 02:44:34;;;;;;;;;;;;;;;22.59;86.65;98516.85;1892800;76;20253;-64
2021/07/18 02:47:09;;;;;;;;;;;;;;;22.65;86.27;98523.64;1873603;76;20098;-63
2021/07/18 02:49:43;;;;;;;;;;;;;;;22.70;85.99;98527.77;1873494;76;20098;-65
2021/07/18 02:52:25;;;;;;;;;;;;;;;22.74;85.62;98524.08;1892667;76;20117;-64
2021/07/18 02:55:03;;;;;;;;;;;;;;;22.79;85.45;98523.00;1892887;76;20097;-64
2021/07/18 02:57:57;;;;;;;;;;;;;;;22.83;85.08;98519.31;1892748;76;20097;-63
2021/07/18 03:00:32;;;;;;;;;;;;;;;22.87;84.75;98528.31;1873478;76;20212;-64
2021/07/18 03:03:06;;;;;;;;;;;;;;;22.92;84.50;98525.01;1873484;76;20208;-65
2021/07/18 03:05:41;;;;;;;;;;;;;;;22.96;84.21;98521.76;1873496;76;20098;-64
2021/07/18 03:08:15;;;;;;;;;;;;;;;23.01;83.90;98517.63;1892790;76;20101;-63
2021/07/18 03:10:51;;;;;;;;;;;;;;;23.04;83.60;98518.33;1873400;76;20204;-62
2021/07/18 03:13:26;;;;;;;;;;;;;;;23.10;83.22;98507.97;1873415;76;20098;-66
2021/07/18 03:16:01;;;;;;;;;;;;;;;23.17;82.94;98512.02;1892770;76;20100;-64
2021/07/18 03:18:37;;;;;;;;;;;;;;;23.26;82.52;98508.12;1873226;76;20101;-65
2021/07/18 03:21:11;;;;;;;;;;;;;;;23.34;82.10;98517.81;1873476;76;20097;-65
2021/07/18 03:23:46;;;;;;;;;;;;;;;23.39;81.80;98522.39;1873411;76;20098;-67
2021/07/18 03:26:44;;;;;;;;;;;;;;;23.47;81.39;98521.55;1871091;75;20239;-63
2021/07/18 03:29:25;;;;;;;;;;;;;;;23.53;81.02;98523.87;1872600;76;20102;-65
2021/07/18 03:31:59;;;;;;;;;;;;;;;23.61;80.72;98522.20;1873466;76;20208;-64
2021/07/18 03:34:34;;;;;;;;;;;;;;;23.67;80.47;98518.41;1873428;76;20093;-62
2021/07/18 03:37:09;;;;;;;;;;;;;;;23.72;80.22;98513.77;1892794;76;20093;-64
2021/07/18 03:40:12;;;;;;;;;;;;;;;23.81;79.91;98521.22;1873436;76;20204;-65
2021/07/18 03:42:52;;;;;;;;;;;;;;;23.89;79.65;98516.45;1893191;76;20211;-63
2021/07/18 03:45:27;;;;;;;;;;;;;;;23.97;79.23;98514.27;1893008;76;20097;-65
2021/07/18 03:48:03;;;;;;;;;;;;;;;24.04;78.79;98510.39;1873325;76;20212;-66
2021/07/18 03:50:38;;;;;;;;;;;;;;;24.11;78.62;98511.38;1873233;76;20101;-63
2021/07/18 03:53:13;;;;;;;;;;;;;;;24.17;78.41;98513.69;1892789;76;20420;-66
2021/07/18 03:55:49;;;;;;;;;;;;;;;24.23;78.21;98509.44;1892815;76;20097;-65
2021/07/18 03:58:25;;;;;;;;;;;;;;;24.28;78.01;98510.52;1873274;76;20093;-64
2021/07/18 04:01:00;;;;;;;;;;;;;;;24.35;77.78;98519.78;1892803;76;20092;-64
2021/07/18 04:03:35;;;;;;;;;;;;;;;24.40;77.53;98518.64;1873490;76;20097;-64
2021/07/18 04:06:09;;;;;;;;;;;;;;;24.45;77.22;98522.36;1873479;76;20093;-66
2021/07/18 04:08:45;;;;;;;;;;;;;;;24.50;77.16;98520.80;1860481;77;20345;-64
2021/07/18 04:11:38;;;;;;;;;;;;;;;24.53;76.93;98518.88;1873467;76;20208;-64
2021/07/18 04:14:13;;;;;;;;;;;;;;;24.57;76.86;98516.91;1873495;76;20208;-66
2021/07/18 04:16:47;;;;;;;;;;;;;;;24.59;76.61;98515.05;1873512;76;20363;-63
2021/07/18 04:19:23;;;;;;;;;;;;;;;24.61;76.58;98526.38;1873258;76;20097;-64
2021/07/18 04:21:58;;;;;;;;;;;;;;;24.66;76.64;98526.98;1873396;76;20348;-65
2021/07/18 04:24:58;;;;;;;;;;;;;;;24.81;76.43;98532.75;1872583;76;20101;-67
2021/07/18 04:28:12;;;;;;;;;;;;;;;24.98;75.92;98537.58;1873943;75;20235;-62
2021/07/18 04:30:59;;;;;;;;;;;;;;;25.08;75.49;98536.13;1892743;76;20215;-64
2021/07/18 04:33:35;;;;;;;;;;;;;;;25.17;75.04;98533.02;1892851;76;20101;-64
2021/07/18 04:36:10;;;;;;;;;;;;;;;25.25;74.80;98536.08;1892768;76;20132;-66
2021/07/18 04:38:46;;;;;;;;;;;;;;;25.32;74.63;98538.77;1873268;76;20093;-63
2021/07/18 04:41:41;;;;;;;;;;;;;;;25.44;74.27;98543.84;1873409;76;20097;-65
2021/07/18 04:44:15;;;;;;;;;;;;;;;25.59;74.01;98543.89;1873446;76;20208;-65
2021/07/18 04:46:54;;;;;;;;;;;;;;;25.76;73.33;98549.06;1892840;76;20576;-65
2021/07/18 04:49:27;;;;;;;;;;;;;;;25.71;72.96;98544.03;1873393;76;20347;-66
2021/07/18 04:52:20;;;;;;;;;;;;;;;25.74;73.07;98549.14;1892787;76;20460;-63
2021/07/18 04:54:55;;;;;;;;;;;;;;;25.89;73.00;98550.08;1873421;76;20097;-64
2021/07/18 04:57:30;;;;;;;;;;;;;;;26.14;72.50;98554.78;1873470;76;20168;-65
2021/07/18 05:00:07;;;;;;;;;;;;;;;26.33;71.37;98555.88;1873553;76;20208;-67
2021/07/18 05:02:42;;;;;;;;;;;;;;;26.49;70.53;98553.63;1892800;76;20351;-63
2021/07/18 05:05:23;;;;;;;;;;;;;;;26.48;70.47;98552.75;1872534;76;20368;-66
2021/07/18 05:07:59;;;;;;;;;;;;;;;26.64;70.02;98552.72;1873407;76;20098;-65
2021/07/18 05:10:53;;;;;;;;;;;;;;;26.83;69.32;98552.42;1892745;76;20354;-65
2021/07/18 05:13:49;;;;;;;;;;;;;;;26.90;68.65;98547.13;1892728;76;20454;-63
2021/07/18 05:16:25;;;;;;;;;;;;;;;26.99;68.34;98543.03;1892661;76;20097;-65
2021/07/18 05:19:00;;;;;;;;;;;;;;;27.10;67.82;98541.05;1873500;76;20356;-65
2021/07/18 05:21:34;;;;;;;;;;;;;;;27.23;67.79;98545.97;1873519;76;20093;-66
2021/07/18 05:24:12;;;;;;;;;;;;;;;27.27;67.31;98543.48;1892799;76;20203;-64
2021/07/18 05:26:47;;;;;;;;;;;;;;;27.19;67.51;98543.98;1873399;76;20347;-64
2021/07/18 05:29:23;;;;;;;;;;;;;;;27.16;67.73;98545.95;1873343;76;20098;-65
2021/07/18 05:31:57;;;;;;;;;;;;;;;27.22;67.93;98548.22;1873495;76;20355;-65
2021/07/18 05:34:32;;;;;;;;;;;;;;;27.46;67.73;98545.81;1873480;76;20097;-65
2021/07/18 05:37:07;;;;;;;;;;;;;;;27.69;66.83;98550.45;1873408;76;20102;-65
2021/07/18 05:39:42;;;;;;;;;;;;;;;27.87;65.97;98547.09;1873468;76;20159;-66
2021/07/18 05:42:18;;;;;;;;;;;;;;;28.03;65.42;98548.71;1873246;76;20156;-66
2021/07/18 05:44:53;;;;;;;;;;;;;;;28.17;64.95;98546.47;1873498;76;20208;-66
2021/07/18 05:47:28;;;;;;;;;;;;;;;28.39;64.70;98545.83;1892809;76;20188;-64
2021/07/18 05:50:06;;;;;;;;;;;;;;;28.71;63.82;98540.49;1873314;76;20093;-67
2021/07/18 05:53:01;;;;;;;;;;;;;;;29.37;62.51;98543.77;1873294;76;20351;-67
2021/07/18 05:55:36;;;;;;;;;;;;;;;31.06;59.07;98555.39;1892792;76;20100;-65
2021/07/18 05:58:10;;;;;;;;;;;;;;;32.94;54.62;98570.01;1873485;76;20094;-67
2021/07/18 06:00:45;;;;;;;;;;;;;;;34.64;49.78;98574.66;1873566;76;20098;-66
2021/07/18 06:03:39;;;;;;;;;;;;;;;35.84;46.31;98595.25;1873412;76;20102;-66
2021/07/18 06:06:14;;;;;;;;;;;;;;;37.07;43.08;98601.59;1873614;76;20209;-67
2021/07/18 06:08:51;;;;;;;;;;;;;;;38.17;40.87;98612.70;1892793;76;20474;-67
2021/07/18 06:11:26;;;;;;;;;;;;;;;39.62;37.98;98627.58;1873302;76;20340;-69
2021/07/18 06:14:20;;;;;;;;;;;;;;;40.96;35.51;98639.20;1873490;76;20208;-66
2021/07/18 06:16:54;;;;;;;;;;;;;;;41.98;33.51;98642.55;1873477;76;20208;-67
2021/07/18 06:19:28;;;;;;;;;;;;;;;42.81;31.91;98641.52;1873502;76;20216;-67
2021/07/18 06:22:04;;;;;;;;;;;;;;;43.43;30.97;98647.09;1873477;76;20097;-68
2021/07/18 06:24:38;;;;;;;;;;;;;;;44.20;29.81;98663.59;1873506;76;20351;-65
2021/07/18 06:27:14;;;;;;;;;;;;;;;45.02;28.36;98655.52;1873262;76;20343;-66
2021/07/18 06:29:48;;;;;;;;;;;;;;;45.62;27.60;98666.78;1892756;76;20208;-68
2021/07/18 06:32:27;;;;;;;;;;;;;;;46.24;26.79;98668.45;1873293;76;20356;-65
2021/07/18 06:35:02;;;;;;;;;;;;;;;46.95;25.73;98672.72;1873490;76;20204;-64
2021/07/18 06:37:37;;;;;;;;;;;;;;;47.41;25.05;98672.75;1873460;76;20098;-64
2021/07/18 06:40:31;;;;;;;;;;;;;;;47.82;24.33;98680.25;1892750;76;20208;-67
2021/07/18 06:43:06;;;;;;;;;;;;;;;47.82;24.06;98681.63;1892786;76;20203;-67
2021/07/18 06:45:41;;;;;;;;;;;;;;;47.33;24.31;98679.36;1873480;76;20102;-67
2021/07/18 06:48:17;;;;;;;;;;;;;;;46.85;24.94;98678.69;1892915;76;20093;-65
2021/07/18 06:51:11;;;;;;;;;;;;;;;47.49;24.44;98679.84;1873537;76;20208;-63
2021/07/18 06:53:45;;;;;;;;;;;;;;;48.14;23.54;98681.38;1873474;76;20208;-64
2021/07/18 06:56:38;;;;;;;;;;;;;;;48.47;22.99;98690.98;1873401;76;20102;-66
2021/07/18 06:59:13;;;;;;;;;;;;;;;48.62;22.71;98691.92;1873515;76;20097;-64
2021/07/18 07:01:47;;;;;;;;;;;;;;;48.62;22.73;98682.34;1873467;76;20216;-64
2021/07/18 07:04:23;;;;;;;;;;;;;;;48.67;22.70;98685.20;1873310;76;20098;-67
2021/07/18 07:06:57;;;;;;;;;;;;;;;48.75;22.66;98688.11;1873480;76;20351;-65
2021/07/18 07:09:33;;;;;;;;;;;;;;;49.04;22.18;98687.73;1892792;76;20342;-68
2021/07/18 07:12:08;;;;;;;;;;;;;;;48.78;22.09;98688.49;1892782;76;20215;-66
2021/07/18 07:15:04;;;;;;;;;;;;;;;48.40;22.42;98682.06;1873449;76;20451;-69
2021/07/18 07:17:39;;;;;;;;;;;;;;;48.29;22.53;98683.69;1873483;76;20212;-68
2021/07/18 07:20:14;;;;;;;;;;;;;;;47.89;22.76;98678.80;1873545;76;20212;-63
2021/07/18 07:22:49;;;;;;;;;;;;;;;47.25;23.16;98678.81;1892833;76;20347;-66
2021/07/18 07:25:23;;;;;;;;;;;;;;;47.17;23.29;98676.72;1892922;76;20207;-64
2021/07/18 07:27:58;;;;;;;;;;;;;;;47.67;22.86;98678.97;1893000;76;20096;-65
2021/07/18 07:30:35;;;;;;;;;;;;;;;47.92;22.25;98680.23;1873573;76;20462;-66
2021/07/18 07:33:12;;;;;;;;;;;;;;;48.08;21.95;98683.67;1892905;76;20105;-64
2021/07/18 07:35:46;;;;;;;;;;;;;;;48.02;21.93;98679.97;1873711;76;20094;-64
2021/07/18 07:38:40;;;;;;;;;;;;;;;47.72;22.51;98679.11;1873601;76;20331;-67
2021/07/18 07:41:35;;;;;;;;;;;;;;;47.07;22.67;98675.02;1873207;76;20101;-67
2021/07/18 07:44:10;;;;;;;;;;;;;;;46.49;23.63;98672.59;1892793;76;20207;-63
2021/07/18 07:47:04;;;;;;;;;;;;;;;46.24;24.17;98676.10;1873406;76;20204;-65
2021/07/18 07:49:39;;;;;;;;;;;;;;;45.63;25.27;98673.39;1873354;76;20094;-67
2021/07/18 07:52:33;;;;;;;;;;;;;;;46.04;24.86;98669.95;1873439;76;20200;-67
2021/07/18 07:55:09;;;;;;;;;;;;;;;46.66;24.29;98672.31;1873528;76;20094;-68
2021/07/18 07:58:05;;;;;;;;;;;;;;;47.38;23.32;98686.34;1873460;76;20343;-67
2021/07/18 08:00:39;;;;;;;;;;;;;;;46.88;23.53;98678.77;1873490;76;20212;-71
2021/07/18 08:03:14;;;;;;;;;;;;;;;44.94;25.16;98673.45;1873308;76;20101;-63
2021/07/18 08:05:50;;;;;;;;;;;;;;;44.05;26.12;98670.56;1892895;76;20097;-67
2021/07/18 08:08:29;;;;;;;;;;;;;;;44.02;26.30;98661.97;1873303;76;20454;-69
2021/07/18 08:11:04;;;;;;;;;;;;;;;43.81;26.44;98656.97;1873450;76;20097;-68
2021/07/18 08:13:40;;;;;;;;;;;;;;;43.70;26.65;98657.05;1873361;76;20094;-65
2021/07/18 08:16:34;;;;;;;;;;;;;;;43.41;26.81;98649.17;1873445;76;20208;-67
2021/07/18 08:19:08;;;;;;;;;;;;;;;42.95;26.76;98648.38;1873473;76;20271;-65
2021/07/18 08:21:42;;;;;;;;;;;;;;;42.83;26.55;98642.16;1873458;76;20102;-68
2021/07/18 08:24:23;;;;;;;;;;;;;;;42.90;26.22;98645.77;1892779;76;20207;-68
2021/07/18 08:26:58;;;;;;;;;;;;;;;42.35;26.84;98650.59;1892744;76;20358;-65
2021/07/18 08:29:34;;;;;;;;;;;;;;;43.04;25.96;98643.12;1892863;76;20101;-67
2021/07/18 08:32:08;;;;;;;;;;;;;;;44.00;25.10;98645.88;1853676;77;20103;-66
2021/07/18 08:34:43;;;;;;;;;;;;;;;44.93;24.32;98651.34;1873372;76;20132;-64
2021/07/18 08:37:17;;;;;;;;;;;;;;;45.46;23.50;98649.84;1873454;76;20212;-66
2021/07/18 08:39:52;;;;;;;;;;;;;;;45.12;23.52;98656.98;1892794;76;20215;-66
2021/07/18 08:42:28;;;;;;;;;;;;;;;43.77;24.53;98654.37;1873278;76;20098;-67
2021/07/18 08:45:22;;;;;;;;;;;;;;;41.49;27.45;98640.45;1873495;76;20204;-66
2021/07/18 08:47:57;;;;;;;;;;;;;;;39.92;29.52;98637.55;1892806;76;20343;-67
2021/07/18 08:50:31;;;;;;;;;;;;;;;38.53;31.47;98631.76;1892863;76;20096;-64
2021/07/18 08:53:06;;;;;;;;;;;;;;;37.12;35.79;98628.37;1873543;76;20097;-66
2021/07/18 08:55:41;;;;;;;;;;;;;;;35.91;36.89;98626.38;1873458;76;20463;-66
2021/07/18 08:58:15;;;;;;;;;;;;;;;35.00;38.79;98621.73;1873447;76;20097;-65
2021/07/18 09:01:13;;;;;;;;;;;;;;;34.31;41.07;98625.03;1892733;76;20097;-65
2021/07/18 09:03:47;;;;;;;;;;;;;;;34.29;41.36;98620.30;1873537;76;20204;-65
2021/07/18 09:06:45;;;;;;;;;;;;;;;34.82;40.09;98615.45;1873401;76;20102;-66
2021/07/18 09:09:39;;;;;;;;;;;;;;;35.60;39.15;98614.15;1877763;75;20243;-66
2021/07/18 09:12:30;;;;;;;;;;;;;;;36.77;36.88;98609.16;1873486;76;20208;-67
2021/07/18 09:15:06;;;;;;;;;;;;;;;37.70;34.40;98611.09;1892787;76;20204;-65
2021/07/18 09:17:41;;;;;;;;;;;;;;;38.56;33.99;98610.67;1873446;76;20212;-66
2021/07/18 09:20:17;;;;;;;;;;;;;;;39.12;32.43;98616.64;1873195;76;20097;-67
2021/07/18 09:23:17;;;;;;;;;;;;;;;39.47;32.35;98615.34;1887521;75;20159;-66
2021/07/18 09:26:13;;;;;;;;;;;;;;;39.70;31.38;98616.72;1892823;76;20211;-67
2021/07/18 09:29:11;;;;;;;;;;;;;;;39.57;32.22;98614.61;1873300;76;20098;-66
2021/07/18 09:32:10;;;;;;;;;;;;;;;39.24;32.53;98607.15;1892802;76;20136;-67
2021/07/18 09:34:56;;;;;;;;;;;;;;;38.50;32.91;98599.23;1873516;76;20226;-66
2021/07/18 09:37:33;;;;;;;;;;;;;;;37.82;33.05;98604.89;1873497;76;20458;-65
2021/07/18 09:40:10;;;;;;;;;;;;;;;37.19;33.86;98605.68;1873495;76;20470;-65
2021/07/18 09:42:54;;;;;;;;;;;;;;;36.75;34.63;98600.91;1873476;76;20204;-66
2021/07/18 09:45:57;;;;;;;;;;;;;;;36.26;36.75;98598.69;1873425;76;20208;-65
2021/07/18 09:48:57;;;;;;;;;;;;;;;35.87;36.43;98600.31;1872620;76;20303;-65
2021/07/18 09:51:50;;;;;;;;;;;;;;;35.74;37.40;98595.83;1873421;76;20208;-63
2021/07/18 09:54:26;;;;;;;;;;;;;;;35.61;37.98;98599.72;1865308;76;20211;-67
2021/07/18 09:57:01;;;;;;;;;;;;;;;35.49;37.05;98600.89;1892774;76;20215;-66
2021/07/18 09:59:41;;;;;;;;;;;;;;;35.36;37.41;98590.52;1892813;76;20204;-66
2021/07/18 10:02:17;;;;;;;;;;;;;;;35.20;37.72;98594.36;1873476;76;20213;-66
2021/07/18 10:04:56;;;;;;;;;;;;;;;35.13;38.12;98586.55;1892846;76;20097;-65
2021/07/18 10:07:33;;;;;;;;;;;;;;;35.08;38.13;98595.04;1873493;76;20204;-66
2021/07/18 10:10:09;;;;;;;;;;;;;;;35.15;38.38;98587.26;1873374;76;20098;-66
2021/07/18 10:12:44;;;;;;;;;;;;;;;35.15;38.18;98588.09;1873482;76;20470;-67
2021/07/18 10:15:37;;;;;;;;;;;;;;;34.95;38.35;98581.09;1873455;76;20102;-66
2021/07/18 10:18:12;;;;;;;;;;;;;;;34.98;38.31;98584.82;1873485;76;20209;-65
2021/07/18 10:20:46;;;;;;;;;;;;;;;34.94;38.35;98577.58;1873503;76;20094;-65
2021/07/18 10:23:23;;;;;;;;;;;;;;;34.87;38.61;98576.98;1873318;76;20101;-65
2021/07/18 10:25:59;;;;;;;;;;;;;;;34.87;38.85;98574.30;1873494;76;20208;-65
2021/07/18 10:28:53;;;;;;;;;;;;;;;34.88;38.91;98573.29;1873445;76;20216;-66
2021/07/18 10:31:49;;;;;;;;;;;;;;;34.87;39.09;98563.07;1892748;76;20450;-66
2021/07/18 10:34:45;;;;;;;;;;;;;;;34.72;39.59;98548.45;1853098;77;20162;-66
2021/07/18 10:37:41;;;;;;;;;;;;;;;34.57;40.15;98542.69;1873409;76;20351;-65
2021/07/18 10:40:27;;;;;;;;;;;;;;;34.41;40.34;98547.83;1873389;76;20097;-63
2021/07/18 10:43:04;;;;;;;;;;;;;;;34.21;40.55;98538.98;1873569;76;20184;-66
2021/07/18 10:45:40;;;;;;;;;;;;;;;34.03;41.13;98542.34;1873476;76;20101;-68
2021/07/18 10:48:14;;;;;;;;;;;;;;;33.91;41.30;98534.95;1873441;76;20451;-65
2021/07/18 10:51:10;;;;;;;;;;;;;;;33.89;41.63;98536.95;1873494;76;20204;-67
2021/07/18 10:53:48;;;;;;;;;;;;;;;33.88;41.66;98545.11;1873241;76;20098;-62
2021/07/18 10:56:27;;;;;;;;;;;;;;;33.86;41.96;98531.85;1892787;76;20096;-66
2021/07/18 10:59:37;;;;;;;;;;;;;;;33.70;41.79;98527.57;1873454;76;20212;-64
2021/07/18 11:02:15;;;;;;;;;;;;;;;33.57;42.26;98529.69;1873513;76;20097;-64
2021/07/18 11:05:12;;;;;;;;;;;;;;;33.54;42.37;98521.91;1873445;76;20212;-66
2021/07/18 11:07:57;;;;;;;;;;;;;;;33.57;42.17;98519.82;1873410;76;20351;-67
2021/07/18 11:10:54;;;;;;;;;;;;;;;33.51;42.76;98522.54;1892798;76;20211;-66
2021/07/18 11:13:30;;;;;;;;;;;;;;;33.50;42.73;98516.81;1873294;76;20101;-65
2021/07/18 11:16:45;;;;;;;;;;;;;;;33.49;42.80;98521.83;1880335;75;20132;-66
2021/07/18 11:19:57;;;;;;;;;;;;;;;33.60;42.78;98508.83;1873194;76;20355;-67
2021/07/18 11:23:01;;;;;;;;;;;;;;;33.80;42.08;98505.66;1873481;76;20094;-63
2021/07/18 11:25:49;;;;;;;;;;;;;;;34.06;41.27;98507.74;1873528;76;20458;-64
2021/07/18 11:31:44;;;;;;;;;;;;;;;34.12;41.07;98504.55;1873422;76;20097;-66
2021/07/18 11:34:41;;;;;;;;;;;;;;;34.09;41.13;98502.13;1873465;76;20303;-68
2021/07/18 11:37:16;;;;;;;;;;;;;;;34.10;41.30;98507.85;1873515;76;20098;-66
2021/07/18 11:40:16;;;;;;;;;;;;;;;34.21;41.41;98506.34;1872581;76;20455;-68
2021/07/18 11:42:50;;;;;;;;;;;;;;;34.49;41.03;98507.73;1837876;77;20207;-68
2021/07/18 11:45:29;;;;;;;;;;;;;;;34.68;40.52;98512.20;1866182;76;20115;-65
2021/07/18 11:48:05;;;;;;;;;;;;;;;34.62;40.34;98513.64;1875138;76;20470;-67
2021/07/18 11:50:39;;;;;;;;;;;;;;;34.47;39.21;98517.75;1857710;76;20210;-67
2021/07/18 11:53:32;;;;;;;;;;;;;;;34.27;39.14;98505.78;1858645;76;20466;-67
2021/07/18 11:56:16;;;;;;;;;;;;;;;34.08;38.87;98510.66;1855414;76;20226;-65
2021/07/18 11:58:52;;;;;;;;;;;;;;;33.84;38.98;98519.12;1873456;76;20208;-66
2021/07/18 12:01:35;;;;;;;;;;;;;;;33.62;39.34;98510.88;1872521;76;20101;-64
2021/07/18 12:04:29;;;;;;;;;;;;;;;33.44;41.39;98505.84;1869457;75;20510;-68
2021/07/18 12:07:05;;;;;;;;;;;;;;;33.49;41.30;98506.27;1892801;76;20211;-63
2021/07/18 12:10:00;;;;;;;;;;;;;;;33.46;40.24;98505.22;1887046;76;20227;-66
2021/07/18 12:12:35;;;;;;;;;;;;;;;33.21;41.03;98502.58;1855232;76;20113;-68
2021/07/18 12:15:16;;;;;;;;;;;;;;;32.93;42.02;98499.66;1868999;76;20164;-68
2021/07/18 12:18:02;;;;;;;;;;;;;;;32.69;43.79;98494.64;1855197;76;20120;-67
2021/07/18 12:20:37;;;;;;;;;;;;;;;32.62;44.70;98497.03;1854493;76;20278;-69
2021/07/18 12:23:30;;;;;;;;;;;;;;;32.77;44.52;98500.65;1862559;76;20224;-67
2021/07/18 12:26:05;;;;;;;;;;;;;;;32.86;43.75;98493.16;1892536;76;20097;-66
2021/07/18 12:28:40;;;;;;;;;;;;;;;32.80;43.36;98485.70;1873365;76;20407;-68
2021/07/18 12:31:14;;;;;;;;;;;;;;;32.74;43.90;98484.89;1873328;76;20101;-67
2021/07/18 12:33:54;;;;;;;;;;;;;;;32.96;44.03;98482.01;1873447;76;20347;-69
2021/07/18 12:37:09;;;;;;;;;;;;;;;33.25;42.52;98482.11;1892683;76;20211;-68
2021/07/18 12:39:49;;;;;;;;;;;;;;;33.34;41.86;98482.25;1873269;76;20157;-66
2021/07/18 12:42:31;;;;;;;;;;;;;;;33.37;41.76;98481.47;1873354;76;20351;-66
2021/07/18 12:45:24;;;;;;;;;;;;;;;33.47;40.49;98476.97;1873443;76;20212;-66
2021/07/18 12:48:23;;;;;;;;;;;;;;;33.65;40.14;98474.46;1873479;76;20212;-66
2021/07/18 12:50:58;;;;;;;;;;;;;;;33.82;39.67;98476.92;1873291;76;20101;-66
2021/07/18 12:53:33;;;;;;;;;;;;;;;34.00;39.96;98487.75;1872982;76;20265;-67
2021/07/18 12:56:09;;;;;;;;;;;;;;;34.19;39.36;98490.90;1873048;76;20098;-68
2021/07/18 12:58:44;;;;;;;;;;;;;;;34.19;39.85;98484.20;1873571;76;20094;-67
2021/07/18 13:01:38;;;;;;;;;;;;;;;34.17;39.62;98480.84;1892676;76;20203;-66
2021/07/18 13:04:32;;;;;;;;;;;;;;;34.05;40.60;98473.94;1892744;76;20227;-67
2021/07/18 13:07:13;;;;;;;;;;;;;;;33.97;40.68;98475.13;1873486;76;20097;-65
2021/07/18 13:10:16;;;;;;;;;;;;;;;34.02;40.68;98467.03;1874156;75;20128;-68
2021/07/18 13:13:02;;;;;;;;;;;;;;;34.17;40.25;98467.92;1873426;76;20101;-65
2021/07/18 13:15:37;;;;;;;;;;;;;;;34.30;39.30;98471.99;1873456;76;20466;-65
2021/07/18 13:18:38;;;;;;;;;;;;;;;34.29;38.60;98468.95;1892765;76;20116;-66
2021/07/18 13:21:17;;;;;;;;;;;;;;;34.32;38.68;98472.70;1873527;76;20212;-68
2021/07/18 13:23:53;;;;;;;;;;;;;;;34.33;38.16;98465.00;1892817;76;20203;-66
2021/07/18 13:26:47;;;;;;;;;;;;;;;34.32;38.30;98462.45;1873277;76;20097;-66
2021/07/18 13:29:44;;;;;;;;;;;;;;;34.38;37.74;98459.70;1860501;76;20187;-68
2021/07/18 13:32:24;;;;;;;;;;;;;;;34.21;37.82;98469.34;1867340;76;20117;-62
2021/07/18 13:35:01;;;;;;;;;;;;;;;33.98;38.12;98466.12;1873460;76;20097;-65
2021/07/18 13:37:58;;;;;;;;;;;;;;;33.84;37.73;98464.72;1873461;76;20208;-69
2021/07/18 13:40:37;;;;;;;;;;;;;;;33.77;37.91;98462.28;1892907;76;20100;-68
2021/07/18 13:43:22;;;;;;;;;;;;;;;33.83;37.08;98453.17;1892787;76;20457;-71
2021/07/18 13:45:58;;;;;;;;;;;;;;;33.91;37.17;98450.62;1873507;76;20204;-71
2021/07/18 13:48:52;;;;;;;;;;;;;;;33.92;37.03;98449.64;1873391;76;20144;-69
2021/07/18 13:51:32;;;;;;;;;;;;;;;33.90;37.11;98456.13;1872630;76;20462;-67
2021/07/18 13:54:07;;;;;;;;;;;;;;;33.92;36.91;98451.48;1873461;76;20093;-66
2021/07/18 13:56:41;;;;;;;;;;;;;;;34.04;37.07;98443.61;1873453;76;20093;-69
2021/07/18 13:59:19;;;;;;;;;;;;;;;34.28;36.67;98445.00;1873519;76;20093;-67
2021/07/18 14:01:54;;;;;;;;;;;;;;;34.43;36.20;98440.02;1873392;76;20192;-69